Dayton, MN (55327)

6:48 AM CDT on July 28, 2016 (GMT -0500)
| | Change Station

Elev -9999 ft 0.00 °N, 0.00 °E | Updated

Cloudy
Cloudy
66 °F
Feels Like 66 °F
N
10
Wind Variable Wind from NNE
Gusts 15 mph

Today
High -- | Low -- °F
--% Chance of Precip.
Yesterday
High -- | Low -- °F
Precip. -- in
Pressure 29.98 in
Visibility 10.0 miles
Clouds Overcast 600 ft
Dew Point 60 °F
Humidity 81%
Rainfall --
Snow Depth Not available.
5:54 AM 8:45 PM
Waning Crescent, 33% visible
METAR KMIC 281053Z AUTO 35008KT 10SM OVC006 18/15 A2999 RMK AO2 SLP152 T01780150
Pressure 29.98 in
Visibility 10.0 miles
Clouds Overcast 600 ft
Dew Point 60 °F
Humidity 81%
Rainfall --
Snow Depth Not available.
5:54 AM 8:45 PM
Waning Crescent, 33% visible
METAR KMIC 281053Z AUTO 35008KT 10SM OVC006 18/15 A2999 RMK AO2 SLP152 T01780150

10-Day Weather Forecast

Almanac

Astronomy

Jul. 28, 2016 Rise Set
Actual Time
Civil Twilight
Nautical Twilight
Astronomical Twilight
Moon
Length of Visible Light
Length of Day
Tomorrow will be .
, % of the Moon is Illuminated

Today's Extremes

State Highs State Lows

Community

WunderPhotos

Upload Photos

1,928,096 photos uploaded!

WunderBlog® & News

Nearby

Air Quality

  Air Quality AQ Index Pollutant
Not available.

Snow Depth

Station Depth Elevation

Earthquake Activity

City Distance Mag. Time & Date
Minimum magnitude displayed is 2.5.

Coastal Water Temperatures

Place Temperature

Stations

Nearby Weather Stations

Station Location Temp. Windchill Dew Point Humidity Wind Precip. Elev Updated Type
                   

Watches & Warnings

There are currently no watches in effect.